createdAt,value
2022-09-22T00:01:40.548Z,93818.41
2022-09-22T00:16:44.913Z,93804.59
2022-09-22T00:31:46.675Z,93811.97
2022-09-22T00:46:52.864Z,93812.97
2022-09-22T01:01:54.905Z,93805.97
2022-09-22T01:16:56.427Z,93789.47
2022-09-22T01:32:27.081Z,93787.41
2022-09-22T01:47:40.789Z,93774.06
2022-09-22T02:02:45.378Z,93780.63
2022-09-22T02:17:47.126Z,93774.50
2022-09-22T02:32:50.311Z,93770.66
2022-09-22T02:47:54.010Z,93781.69
2022-09-22T03:02:55.465Z,93785.09
2022-09-22T03:17:56.955Z,93786.94
2022-09-22T03:32:58.448Z,93793.34
2022-09-22T03:48:00.149Z,93789.28
2022-09-22T04:03:01.591Z,93795.44
2022-09-22T04:18:03.078Z,93808.38
2022-09-22T04:33:04.631Z,93803.91
2022-09-22T04:48:06.088Z,93803.84
2022-09-22T05:03:08.723Z,93801.97
2022-09-22T05:18:10.212Z,93807.38
2022-09-22T05:33:11.655Z,93811.31
2022-09-22T05:48:13.140Z,93809.97
2022-09-22T06:03:14.683Z,93808.50
2022-09-22T06:18:23.441Z,93805.91
2022-09-22T06:33:29.348Z,93810.84
2022-09-22T06:48:32.063Z,93796.53
2022-09-22T07:03:40.234Z,93793.50
2022-09-22T07:18:46.091Z,93801.44
2022-09-22T07:33:47.617Z,93803.63
2022-09-22T07:48:49.194Z,93810.31
2022-09-22T08:03:51.100Z,93812.16
2022-09-22T08:18:56.780Z,93824.38
2022-09-22T08:33:58.282Z,93793.53
2022-09-22T08:49:24.997Z,93792.34
2022-09-22T09:04:42.013Z,93779.47
2022-09-22T09:19:45.586Z,93784.63
2022-09-22T09:34:53.687Z,93775.00
2022-09-22T09:49:57.282Z,93768.53
2022-09-22T10:05:00.931Z,93756.53
2022-09-22T10:20:22.138Z,93754.13
2022-09-22T10:35:28.683Z,93741.56
2022-09-22T10:50:42.433Z,93728.50
2022-09-22T11:06:14.626Z,93718.53
2022-09-22T11:21:16.418Z,93715.75
2022-09-22T11:36:23.640Z,93687.47
2022-09-22T11:51:28.167Z,93695.00
2022-09-22T12:06:31.931Z,93711.47
2022-09-22T12:21:52.566Z,93708.97
2022-09-22T12:36:56.411Z,93685.13
2022-09-22T12:51:58.675Z,93697.53
2022-09-22T13:07:00.302Z,93693.81
2022-09-22T13:22:14.920Z,93676.84
2022-09-22T13:37:19.643Z,93658.38
2022-09-22T13:52:23.310Z,93684.06
2022-09-22T14:07:26.669Z,93692.91
2022-09-22T14:22:29.423Z,93707.41
2022-09-22T14:37:32.854Z,93706.69
2022-09-22T14:52:35.750Z,93716.59
2022-09-22T15:07:38.097Z,93714.63
2022-09-22T15:22:39.888Z,93716.97
2022-09-22T15:37:42.239Z,93733.53
2022-09-22T15:52:45.285Z,93745.56
2022-09-22T16:07:48.669Z,93734.19
2022-09-22T16:22:50.138Z,93744.47
2022-09-22T16:37:55.789Z,93754.75
2022-09-22T16:52:57.322Z,93766.50
2022-09-22T17:08:05.944Z,93782.50
2022-09-22T17:23:08.200Z,93791.34
2022-09-22T17:38:09.812Z,93799.28
2022-09-22T17:53:30.008Z,93809.16
2022-09-22T18:08:32.373Z,93813.28
2022-09-22T18:23:33.813Z,93825.94
2022-09-22T18:38:35.244Z,93831.03
2022-09-22T18:53:36.715Z,93832.53
2022-09-22T19:08:38.173Z,93819.09
2022-09-22T19:23:41.726Z,93832.00
2022-09-22T19:38:43.210Z,93833.78
2022-09-22T19:53:44.727Z,93832.16
2022-09-22T20:08:46.224Z,93855.41
2022-09-22T20:23:47.716Z,93853.94
2022-09-22T20:38:49.809Z,93857.09
2022-09-22T20:53:51.349Z,93860.63
2022-09-22T21:09:11.286Z,93865.91
2022-09-22T21:24:12.761Z,93874.88
2022-09-22T21:39:14.231Z,93873.78
2022-09-22T21:54:19.304Z,93869.00
2022-09-22T22:16:09.333Z,93869.16
2022-09-22T22:31:12.387Z,93856.69
2022-09-22T22:46:17.083Z,93850.81
2022-09-22T23:01:23.083Z,93840.16
2022-09-22T23:16:25.982Z,93838.44
2022-09-22T23:31:27.843Z,93835.47
2022-09-22T23:46:29.378Z,93821.06
